createdAt,value
2023-05-22T00:02:57.209Z,11.10
2023-05-22T00:06:00.139Z,10.73
2023-05-22T00:09:01.751Z,10.80
2023-05-22T00:12:03.430Z,10.53
2023-05-22T00:15:05.962Z,11.07
2023-05-22T00:18:08.254Z,10.17
2023-05-22T00:21:10.679Z,10.77
2023-05-22T00:24:12.299Z,10.43
2023-05-22T00:27:13.721Z,11.17
2023-05-22T00:30:15.242Z,10.97
2023-05-22T00:33:16.705Z,11.00
2023-05-22T00:36:18.756Z,11.83
2023-05-22T00:39:20.259Z,11.57
2023-05-22T00:42:23.020Z,11.07
2023-05-22T00:45:24.675Z,10.30
2023-05-22T00:48:26.782Z,11.37
2023-05-22T00:51:29.557Z,11.27
2023-05-22T00:54:32.423Z,10.90
2023-05-22T00:57:33.896Z,11.00
2023-05-22T01:00:36.890Z,11.07
2023-05-22T01:03:44.544Z,11.13
2023-05-22T01:06:47.572Z,10.67
2023-05-22T01:09:49.096Z,10.50
2023-05-22T01:13:01.174Z,11.00
2023-05-22T01:16:14.766Z,10.57
2023-05-22T01:19:54.036Z,10.83
2023-05-22T01:23:13.478Z,11.13
2023-05-22T01:26:28.960Z,11.63
2023-05-22T01:29:42.335Z,11.00
2023-05-22T01:32:47.641Z,10.90
2023-05-22T01:35:54.024Z,11.50
2023-05-22T01:38:56.408Z,10.70
2023-05-22T01:41:58.310Z,11.40
2023-05-22T01:44:59.771Z,11.23
2023-05-22T01:48:01.242Z,10.83
2023-05-22T01:51:09.187Z,11.07
2023-05-22T01:54:36.945Z,11.23
2023-05-22T01:58:00.197Z,11.63
2023-05-22T02:01:03.513Z,11.30
2023-05-22T02:04:06.479Z,11.40
2023-05-22T02:07:12.423Z,11.60
2023-05-22T02:10:16.514Z,11.27
2023-05-22T02:13:18.512Z,11.93
2023-05-22T02:16:22.074Z,11.50
2023-05-22T02:19:24.580Z,11.40
2023-05-22T02:22:26.655Z,11.63
2023-05-22T02:25:28.169Z,11.53
2023-05-22T02:28:29.891Z,11.90
2023-05-22T02:31:31.377Z,11.50
2023-05-22T02:34:32.986Z,11.00
2023-05-22T02:37:34.501Z,11.27
2023-05-22T02:40:35.995Z,10.43
2023-05-22T02:43:37.481Z,11.20
2023-05-22T02:46:38.977Z,10.93
2023-05-22T02:49:40.692Z,11.63
2023-05-22T02:52:42.477Z,10.90
2023-05-22T02:55:44.000Z,12.20
2023-05-22T02:58:45.553Z,12.03
2023-05-22T03:01:48.389Z,10.67
2023-05-22T03:04:50.075Z,10.03
2023-05-22T03:07:52.754Z,11.90
2023-05-22T03:10:54.501Z,11.60
2023-05-22T03:13:56.437Z,11.30
2023-05-22T03:16:58.881Z,11.97
2023-05-22T03:20:00.422Z,11.73
2023-05-22T03:23:01.917Z,11.53
2023-05-22T03:26:03.387Z,12.47
2023-05-22T03:29:09.339Z,11.97
2023-05-22T03:32:14.444Z,11.57
2023-05-22T03:35:19.602Z,11.10
2023-05-22T03:38:21.153Z,11.47
2023-05-22T03:41:22.584Z,11.97
2023-05-22T03:44:24.426Z,12.60
2023-05-22T03:47:25.978Z,12.07
2023-05-22T03:50:27.526Z,11.50
2023-05-22T03:53:29.298Z,11.63
2023-05-22T03:56:30.761Z,10.90
2023-05-22T03:59:32.248Z,11.57
2023-05-22T04:02:33.766Z,11.80
2023-05-22T04:05:35.417Z,12.73
2023-05-22T04:08:37.006Z,12.57
2023-05-22T04:11:42.326Z,10.80
2023-05-22T04:14:43.846Z,10.50
2023-05-22T04:17:46.110Z,12.23
2023-05-22T04:20:47.770Z,12.13
2023-05-22T04:23:49.424Z,12.07
2023-05-22T04:26:50.868Z,12.37
2023-05-22T04:29:52.728Z,13.20
2023-05-22T04:32:54.219Z,12.07
2023-05-22T04:35:56.986Z,12.40
2023-05-22T04:39:00.291Z,12.37
2023-05-22T04:42:05.775Z,13.17
2023-05-22T04:45:09.076Z,12.43
2023-05-22T04:48:11.915Z,12.13
2023-05-22T04:51:14.375Z,11.73
2023-05-22T04:54:15.921Z,12.80
2023-05-22T04:57:21.249Z,12.40
2023-05-22T05:00:26.370Z,12.53
2023-05-22T05:03:28.564Z,12.80
2023-05-22T05:06:30.128Z,13.33
2023-05-22T05:09:31.776Z,14.57
2023-05-22T05:12:33.613Z,13.40
2023-05-22T05:15:35.373Z,13.10
2023-05-22T05:18:37.569Z,13.63
2023-05-22T05:21:39.562Z,12.90
2023-05-22T05:24:41.141Z,13.23
2023-05-22T05:27:42.669Z,14.50
2023-05-22T05:30:44.606Z,12.80
2023-05-22T05:34:05.727Z,14.10
2023-05-22T05:37:24.872Z,13.57
2023-05-22T05:40:27.552Z,14.17
2023-05-22T05:43:29.156Z,13.87
2023-05-22T05:46:36.395Z,13.97
2023-05-22T05:49:38.074Z,13.57
2023-05-22T05:52:41.318Z,13.43
2023-05-22T05:55:47.465Z,14.63
2023-05-22T05:58:49.327Z,15.37
2023-05-22T06:02:13.663Z,14.73
2023-05-22T06:05:19.004Z,14.87
2023-05-22T06:08:22.284Z,13.63
2023-05-22T06:11:24.074Z,13.43
2023-05-22T06:14:28.847Z,15.10
2023-05-22T06:17:30.342Z,15.83
2023-05-22T06:20:32.574Z,16.10
2023-05-22T06:23:34.165Z,16.00
2023-05-22T06:26:35.937Z,15.50
2023-05-22T06:29:37.569Z,15.13
2023-05-22T06:32:40.156Z,14.67
2023-05-22T06:35:43.071Z,15.60
2023-05-22T06:38:45.989Z,15.83
2023-05-22T06:42:07.814Z,14.33
2023-05-22T06:45:27.687Z,14.83
2023-05-22T06:48:49.361Z,14.97
2023-05-22T06:51:57.082Z,15.30
2023-05-22T06:55:04.435Z,14.70
2023-05-22T06:58:08.172Z,15.47
2023-05-22T07:01:10.977Z,16.23
2023-05-22T07:04:20.948Z,14.83
2023-05-22T07:07:31.155Z,15.57
2023-05-22T07:10:32.801Z,16.63
2023-05-22T07:13:34.612Z,15.50
2023-05-22T07:16:36.855Z,17.67
2023-05-22T07:19:38.768Z,16.77
2023-05-22T07:22:40.306Z,17.47
2023-05-22T07:25:42.984Z,16.07
2023-05-22T07:28:46.699Z,16.33
2023-05-22T07:31:49.419Z,17.23
2023-05-22T07:34:51.237Z,16.93
2023-05-22T07:37:53.151Z,15.93
2023-05-22T07:40:56.202Z,17.17
2023-05-22T07:43:59.034Z,16.87
2023-05-22T07:47:05.907Z,18.87
2023-05-22T07:50:09.264Z,16.90
2023-05-22T07:53:14.142Z,16.63
2023-05-22T07:56:18.166Z,17.23
2023-05-22T07:59:21.990Z,18.23
2023-05-22T08:02:24.774Z,18.10
2023-05-22T08:05:26.464Z,17.77
2023-05-22T08:08:28.897Z,17.27
2023-05-22T08:11:31.967Z,17.03
2023-05-22T08:14:33.537Z,16.57
2023-05-22T08:17:35.199Z,18.00
2023-05-22T08:20:38.208Z,17.30
2023-05-22T08:23:39.829Z,16.77
2023-05-22T08:26:43.060Z,17.33
2023-05-22T08:29:44.508Z,16.37
2023-05-22T08:32:45.966Z,16.40
2023-05-22T08:35:47.472Z,15.50
2023-05-22T08:38:48.918Z,15.77
2023-05-22T08:41:50.977Z,16.67
2023-05-22T08:44:52.904Z,15.30
2023-05-22T08:47:57.320Z,17.20
2023-05-22T08:51:04.719Z,15.67
2023-05-22T08:54:09.819Z,16.40
2023-05-22T08:57:11.653Z,16.47
2023-05-22T09:00:13.780Z,16.60
2023-05-22T09:03:15.761Z,15.87
2023-05-22T09:06:17.635Z,16.40
2023-05-22T09:09:19.541Z,16.95
2023-05-22T09:12:21.186Z,17.02
2023-05-22T09:15:22.633Z,15.77
2023-05-22T09:18:27.263Z,15.57
2023-05-22T09:21:30.641Z,16.98
2023-05-22T09:24:40.306Z,14.95
2023-05-22T09:27:45.698Z,15.27
2023-05-22T09:30:51.543Z,14.63
2023-05-22T09:33:53.971Z,14.65
2023-05-22T09:37:03.244Z,14.00
2023-05-22T09:40:11.027Z,13.23
2023-05-22T09:43:17.212Z,14.40
2023-05-22T09:46:18.775Z,15.93
2023-05-22T09:49:20.294Z,16.27
2023-05-22T09:52:23.524Z,15.32
2023-05-22T09:55:26.328Z,15.40
2023-05-22T09:58:31.074Z,15.05
2023-05-22T10:01:33.973Z,14.80
2023-05-22T10:04:36.738Z,15.05
2023-05-22T10:07:50.130Z,14.38
2023-05-22T10:10:53.106Z,16.50
2023-05-22T10:13:55.174Z,15.43
2023-05-22T10:17:01.986Z,16.77
2023-05-22T10:20:07.803Z,16.25
2023-05-22T10:23:14.920Z,15.48
2023-05-22T10:26:16.966Z,15.27
2023-05-22T10:29:42.028Z,15.13
2023-05-22T10:32:57.791Z,14.70
2023-05-22T10:36:04.700Z,15.32
2023-05-22T10:39:26.225Z,14.88
2023-05-22T10:42:34.312Z,14.18
2023-05-22T10:45:36.560Z,15.48
2023-05-22T10:48:47.767Z,14.48
2023-05-22T10:51:55.201Z,15.15
2023-05-22T10:55:00.124Z,15.32
2023-05-22T10:58:13.044Z,13.95
2023-05-22T11:01:16.364Z,13.85
2023-05-22T11:04:19.018Z,14.43
2023-05-22T11:07:25.567Z,15.35
2023-05-22T11:10:27.802Z,14.65
2023-05-22T11:13:29.612Z,13.98
2023-05-22T11:16:34.478Z,14.40
2023-05-22T11:19:36.573Z,15.57
2023-05-22T11:22:41.110Z,13.73
2023-05-22T11:25:42.763Z,15.23
2023-05-22T11:28:49.182Z,14.20
2023-05-22T11:31:50.825Z,14.35
2023-05-22T11:34:53.204Z,13.15
2023-05-22T11:37:56.117Z,12.23
2023-05-22T11:40:58.012Z,12.75
2023-05-22T11:44:00.422Z,11.68
2023-05-22T11:47:01.894Z,10.75
2023-05-22T11:50:06.547Z,11.98
2023-05-22T11:53:08.123Z,12.23
2023-05-22T11:56:09.602Z,10.90
2023-05-22T11:59:11.021Z,10.98
2023-05-22T12:02:13.588Z,10.40
2023-05-22T12:05:16.431Z,10.07
2023-05-22T12:08:18.191Z,10.55
2023-05-22T12:11:19.667Z,10.02
2023-05-22T12:14:26.222Z,10.60
2023-05-22T12:17:28.601Z,10.93
2023-05-22T12:20:31.060Z,10.70
2023-05-22T12:23:32.512Z,10.65
2023-05-22T12:26:34.574Z,10.45
2023-05-22T12:29:36.588Z,11.55
2023-05-22T12:32:39.819Z,10.77
2023-05-22T12:35:41.764Z,11.18
2023-05-22T12:38:43.472Z,10.93
2023-05-22T12:41:46.023Z,10.15
2023-05-22T12:44:47.673Z,11.18
2023-05-22T12:47:49.137Z,9.98
2023-05-22T12:50:50.663Z,10.18
2023-05-22T12:53:52.130Z,13.30
2023-05-22T12:56:53.539Z,9.88
2023-05-22T12:59:55.058Z,9.85
2023-05-22T13:02:56.631Z,10.32
2023-05-22T13:05:58.031Z,10.23
2023-05-22T13:09:02.365Z,10.93
2023-05-22T13:12:04.051Z,10.35
2023-05-22T13:15:06.617Z,10.20
2023-05-22T13:18:08.068Z,10.60
2023-05-22T13:21:09.612Z,10.20
2023-05-22T13:24:11.282Z,9.68
2023-05-22T13:27:13.058Z,9.80
2023-05-22T13:30:14.545Z,9.77
2023-05-22T13:33:16.290Z,10.20
2023-05-22T13:36:18.108Z,10.15
2023-05-22T13:39:19.595Z,10.95
2023-05-22T13:42:21.165Z,9.65
2023-05-22T13:45:22.818Z,9.98
2023-05-22T13:48:24.889Z,10.10
2023-05-22T13:51:26.374Z,9.27
2023-05-22T13:54:28.099Z,9.40
2023-05-22T13:57:29.538Z,9.52
2023-05-22T14:00:31.046Z,9.70
2023-05-22T14:03:32.619Z,9.35
2023-05-22T14:06:34.183Z,9.02
2023-05-22T14:09:35.616Z,9.60
2023-05-22T14:12:37.330Z,9.23
2023-05-22T14:15:38.985Z,9.02
2023-05-22T14:18:40.471Z,8.70
2023-05-22T14:21:41.896Z,9.57
2023-05-22T14:24:43.315Z,8.88
2023-05-22T14:27:44.838Z,9.15
2023-05-22T14:30:46.476Z,8.75
2023-05-22T14:33:47.927Z,9.18
2023-05-22T14:36:49.435Z,8.82
2023-05-22T14:39:50.898Z,9.15
2023-05-22T14:42:54.198Z,9.18
2023-05-22T14:45:57.835Z,8.98
2023-05-22T14:48:59.504Z,9.20
2023-05-22T14:52:01.512Z,10.25
2023-05-22T14:55:03.746Z,9.07
2023-05-22T14:58:05.192Z,9.10
2023-05-22T15:01:06.668Z,9.13
2023-05-22T15:04:08.841Z,9.18
2023-05-22T15:07:10.477Z,9.23
2023-05-22T15:10:12.438Z,8.63
2023-05-22T15:13:14.511Z,8.90
2023-05-22T15:16:16.387Z,9.15
2023-05-22T15:19:18.064Z,8.48
2023-05-22T15:22:20.232Z,7.68
2023-05-22T15:25:21.812Z,8.15
2023-05-22T15:28:23.259Z,8.68
2023-05-22T15:31:24.716Z,8.23
2023-05-22T15:34:26.132Z,7.38
2023-05-22T15:37:32.190Z,7.75
2023-05-22T15:40:34.103Z,6.95
2023-05-22T15:43:35.671Z,6.80
2023-05-22T15:46:37.297Z,6.95
2023-05-22T15:49:38.735Z,6.70
2023-05-22T15:52:40.480Z,6.78
2023-05-22T15:55:42.177Z,7.30
2023-05-22T15:58:43.852Z,7.38
2023-05-22T16:01:45.680Z,7.72
2023-05-22T16:04:48.589Z,8.35
2023-05-22T16:07:50.056Z,8.68
2023-05-22T16:10:51.568Z,8.82
2023-05-22T16:13:53.106Z,8.82
2023-05-22T16:16:55.121Z,8.85
2023-05-22T16:19:56.548Z,9.15
2023-05-22T16:22:57.969Z,9.80
2023-05-22T16:25:59.523Z,10.95
2023-05-22T16:29:01.091Z,11.10
2023-05-22T16:32:03.707Z,11.40
2023-05-22T16:35:06.199Z,11.15
2023-05-22T16:38:11.605Z,11.40
2023-05-22T16:41:13.105Z,10.85
2023-05-22T16:44:14.532Z,11.68
2023-05-22T16:47:15.957Z,10.15
2023-05-22T16:50:17.574Z,9.70
2023-05-22T16:53:19.618Z,8.48
2023-05-22T16:56:21.063Z,8.65
2023-05-22T16:59:22.541Z,8.00
2023-05-22T17:02:24.344Z,8.20
2023-05-22T17:05:25.943Z,7.65
2023-05-22T17:08:28.340Z,7.25
2023-05-22T17:11:30.023Z,7.43
2023-05-22T17:14:33.398Z,7.47
2023-05-22T17:17:34.883Z,7.53
2023-05-22T17:20:36.343Z,7.57
2023-05-22T17:23:40.174Z,8.05
2023-05-22T17:26:42.723Z,7.97
2023-05-22T17:29:44.187Z,8.55
2023-05-22T17:32:46.118Z,7.18
2023-05-22T17:35:47.788Z,7.30
2023-05-22T17:38:49.277Z,7.68
2023-05-22T17:41:51.167Z,7.47
2023-05-22T17:44:52.608Z,7.32
2023-05-22T17:47:54.168Z,6.90
2023-05-22T17:50:55.855Z,6.97
2023-05-22T17:53:58.897Z,7.60
2023-05-22T17:57:00.667Z,7.72
2023-05-22T18:00:05.222Z,7.13
2023-05-22T18:03:13.371Z,6.53
2023-05-22T18:06:14.934Z,6.20
2023-05-22T18:09:16.378Z,6.43
2023-05-22T18:12:31.219Z,6.18
2023-05-22T18:15:33.349Z,5.97
2023-05-22T18:18:34.847Z,6.43
2023-05-22T18:21:36.305Z,6.40
2023-05-22T18:24:38.222Z,6.07
2023-05-22T18:27:40.019Z,5.70
2023-05-22T18:30:44.513Z,5.30
2023-05-22T18:33:46.547Z,5.63
2023-05-22T18:36:50.800Z,5.77
2023-05-22T18:39:53.047Z,5.90
2023-05-22T18:42:54.795Z,5.90
2023-05-22T18:45:57.769Z,5.63
2023-05-22T18:48:59.249Z,5.80
2023-05-22T18:52:01.609Z,6.50
2023-05-22T18:55:03.163Z,5.80
2023-05-22T18:58:04.593Z,5.73
2023-05-22T19:01:06.128Z,5.70
2023-05-22T19:04:08.310Z,6.17
2023-05-22T19:07:09.819Z,5.83
2023-05-22T19:10:11.412Z,6.00
2023-05-22T19:13:12.959Z,6.90
2023-05-22T19:16:14.529Z,7.80
2023-05-22T19:19:16.166Z,7.23
2023-05-22T19:22:18.237Z,8.80
2023-05-22T19:25:21.023Z,8.10
2023-05-22T19:28:23.077Z,9.00
2023-05-22T19:31:28.241Z,9.30
2023-05-22T19:34:29.654Z,9.37
2023-05-22T19:37:31.106Z,10.20
2023-05-22T19:40:33.171Z,10.20
2023-05-22T19:43:34.804Z,9.73
2023-05-22T19:46:36.591Z,11.43
2023-05-22T19:49:38.106Z,10.80
2023-05-22T19:52:39.821Z,11.67
2023-05-22T19:55:41.463Z,11.23
2023-05-22T19:58:43.488Z,12.80
2023-05-22T20:01:44.946Z,12.00
2023-05-22T20:04:48.351Z,12.00
2023-05-22T20:07:49.944Z,13.03
2023-05-22T20:10:51.551Z,12.87
2023-05-22T20:13:54.362Z,14.80
2023-05-22T20:16:55.841Z,14.20
2023-05-22T20:20:01.309Z,13.77
2023-05-22T20:23:02.742Z,13.33
2023-05-22T20:26:04.830Z,13.80
2023-05-22T20:29:06.312Z,13.83
2023-05-22T20:32:08.644Z,14.33
2023-05-22T20:35:10.856Z,15.03
2023-05-22T20:38:14.151Z,13.40
2023-05-22T20:41:15.860Z,13.13
2023-05-22T20:44:23.418Z,12.53
2023-05-22T20:47:24.833Z,11.43
2023-05-22T20:50:26.285Z,11.70
2023-05-22T20:53:27.744Z,11.67
2023-05-22T20:56:29.928Z,12.40
2023-05-22T20:59:32.025Z,11.93
2023-05-22T21:02:33.479Z,12.57
2023-05-22T21:05:34.924Z,11.93
2023-05-22T21:08:36.382Z,13.00
2023-05-22T21:11:37.856Z,13.57
2023-05-22T21:14:40.128Z,13.53
2023-05-22T21:17:41.719Z,14.83
2023-05-22T21:20:43.426Z,16.53
2023-05-22T21:23:44.929Z,15.73
2023-05-22T21:26:46.557Z,16.70
2023-05-22T21:29:47.960Z,15.47
2023-05-22T21:32:49.425Z,16.60
2023-05-22T21:35:50.896Z,16.70
2023-05-22T21:38:53.076Z,16.87
2023-05-22T21:41:54.492Z,18.67
2023-05-22T21:44:55.920Z,19.23
2023-05-22T21:47:57.480Z,18.97
2023-05-22T21:50:59.011Z,19.90
2023-05-22T21:54:00.704Z,19.83
2023-05-22T21:57:02.135Z,20.40
2023-05-22T22:00:03.902Z,20.20
2023-05-22T22:03:06.713Z,21.43
2023-05-22T22:06:08.260Z,22.37
2023-05-22T22:09:09.739Z,24.00
2023-05-22T22:12:11.619Z,25.50
2023-05-22T22:15:13.113Z,25.20
2023-05-22T22:18:15.775Z,27.03
2023-05-22T22:21:26.423Z,28.27
2023-05-22T22:24:28.042Z,28.13
2023-05-22T22:27:29.510Z,27.00
2023-05-22T22:30:31.010Z,27.37
2023-05-22T22:33:32.846Z,28.77
2023-05-22T22:36:36.403Z,29.83
2023-05-22T22:39:38.257Z,30.90
2023-05-22T22:42:39.702Z,32.40
2023-05-22T22:45:41.619Z,34.23
2023-05-22T22:48:43.625Z,35.23
2023-05-22T22:51:45.070Z,33.20
2023-05-22T22:54:46.530Z,35.10
2023-05-22T22:57:49.827Z,36.00
2023-05-22T23:00:51.628Z,38.53
2023-05-22T23:03:53.145Z,37.17
2023-05-22T23:06:54.712Z,38.93
2023-05-22T23:09:56.135Z,37.63
2023-05-22T23:12:58.113Z,38.07
2023-05-22T23:15:59.762Z,39.57
2023-05-22T23:19:05.234Z,40.37
2023-05-22T23:22:06.805Z,40.17
2023-05-22T23:25:08.859Z,39.63
2023-05-22T23:28:10.280Z,40.50
2023-05-22T23:31:14.060Z,43.23
2023-05-22T23:34:15.874Z,40.70
2023-05-22T23:37:17.431Z,40.00
2023-05-22T23:40:18.874Z,39.80
2023-05-22T23:43:20.946Z,40.63
2023-05-22T23:46:24.144Z,37.97
2023-05-22T23:49:26.318Z,42.27
2023-05-22T23:52:27.832Z,41.40
2023-05-22T23:55:29.314Z,40.77
2023-05-22T23:58:31.949Z,41.10
